Minneapolis-St Paul International/Wold-Chamberlain Airport
KMSP : rendu visible

Aérodrome :











RETROUVEZ-NOUS SUR...

 
LOGIN :

S'inscrire | Disclaimer

   EN    FR    IT 

 









Légende :    VFR   VFR Marginal   IFR   IFR Intensif   IFR Très Intensif
Visi : 
Plafond : 
>= 8 km
>= 3000ft
5 à 8 km
1000 à 3000 ft
1500m à 5 km
500 à 1000 ft
800 à 1500m
200 à 500 ft
< 800m
< 200 ft
Symboles :   Orages  Brouillard  Fortes neiges  Fortes précipitations  Vent > 20 kt






- Altitude de l'aérodrome : 841 ft
- Code IATA : MSP


KMSP - Minneapolis-St Paul International/Wold-Chamberlain

DERNIER METAR :
  • 241653Z 32005KT 10SM SCT080 M01/M07 A3037 RMK AO2 SLP297 T10111067

METARs EXPIRÉS :
  • 241553Z 29003KT 10SM OVC085 M02/M07 A3038 RMK AO2 SLP298 T10221067
  • 241453Z 00000KT 10SM BKN100 OVC250 M03/M07 A3037 RMK AO2 SLP295 T10331072 50003

TAF KMSP
Valide du 24 à 14h jusqu'au 25 à 18h UTC


241415Z 2414/2518 29005KT P6SM OVC090
FM241900 36007KT P6SM OVC045
FM250300 36006KT 3SM -SN BR SCT018 OVC035
FIR KZMP / Amérique du Nord



MET'MAP, la Météo Aéronautique d'un coup d'oeil ! - Copyright ORBIFLY Décembre 2007 - Disclaimer

ORBIFLY MET'MAP TEAM :

Programmation & Développement : Alexandra Zaïnal
Sur une idée originale de : Baudouin d'Aumeries
Assistance à la programmation : Marc-Olivier Méhu
Soutien technique & logistique : Manuel Goepfert

Contact : metmap@orbifly.com




SOURCES & CREDITS :

   NOAA       Earth
Advisory